createdAt,value
2022-08-14T00:02:01.549Z,10.50
2022-08-14T00:04:42.479Z,9.60
2022-08-14T00:07:13.929Z,12.88
2022-08-14T00:10:01.843Z,11.23
2022-08-14T00:12:33.818Z,13.15
2022-08-14T00:15:14.971Z,8.52
2022-08-14T00:17:48.358Z,8.80
2022-08-14T00:20:30.421Z,11.27
2022-08-14T00:23:11.913Z,6.45
2022-08-14T00:25:42.968Z,9.10
2022-08-14T00:28:17.736Z,20.15
2022-08-14T00:30:47.047Z,24.38
2022-08-14T00:33:15.958Z,18.23
2022-08-14T00:36:35.579Z,8.57
2022-08-14T00:38:34.828Z,8.25
2022-08-14T00:41:06.085Z,7.72
2022-08-14T00:43:35.034Z,8.02
2022-08-14T00:46:09.193Z,8.77
2022-08-14T00:48:57.902Z,10.00
2022-08-14T00:51:25.259Z,9.70
2022-08-14T00:54:05.224Z,11.57
2022-08-14T00:56:44.880Z,8.73
2022-08-14T00:59:12.407Z,12.63
2022-08-14T01:01:44.383Z,9.45
2022-08-14T01:04:52.157Z,7.72
2022-08-14T01:07:00.848Z,9.90
2022-08-14T01:09:32.199Z,13.85
2022-08-14T01:12:03.371Z,13.18
2022-08-14T01:14:31.258Z,8.70
2022-08-14T01:16:59.982Z,10.45
2022-08-14T01:19:46.743Z,15.15
2022-08-14T01:22:18.903Z,12.48
2022-08-14T01:24:47.420Z,9.52
2022-08-14T01:27:19.479Z,7.57
2022-08-14T01:30:03.563Z,9.02
2022-08-14T01:32:37.424Z,11.15
2022-08-14T01:35:20.560Z,12.50
2022-08-14T01:37:57.991Z,8.65
2022-08-14T01:40:33.264Z,10.40
2022-08-14T01:43:14.602Z,10.95
2022-08-14T01:45:42.841Z,11.13
2022-08-14T01:48:20.883Z,9.05
2022-08-14T01:50:48.190Z,10.85
2022-08-14T01:53:15.530Z,12.70
2022-08-14T01:55:42.857Z,11.30
2022-08-14T01:58:19.509Z,8.77
2022-08-14T02:00:55.468Z,17.15
2022-08-14T02:03:30.045Z,10.52
2022-08-14T02:06:03.516Z,10.57
2022-08-14T02:08:34.832Z,10.10
2022-08-14T02:11:24.699Z,7.80
2022-08-14T02:14:07.197Z,13.55
2022-08-14T02:16:39.322Z,12.30
2022-08-14T02:19:09.698Z,12.82
2022-08-14T02:21:43.273Z,15.55
2022-08-14T02:24:39.367Z,11.20
2022-08-14T02:28:24.520Z,10.05
2022-08-14T02:30:00.550Z,9.40
2022-08-14T02:32:36.756Z,15.63
2022-08-14T02:35:16.839Z,10.50
2022-08-14T02:37:49.806Z,12.30
2022-08-14T02:40:19.436Z,10.88
2022-08-14T02:42:54.890Z,11.48
2022-08-14T02:45:33.167Z,10.77
2022-08-14T02:48:10.590Z,14.30
2022-08-14T02:50:54.545Z,10.48
2022-08-14T02:53:21.401Z,12.55
2022-08-14T02:55:48.611Z,14.82
2022-08-14T02:58:29.150Z,9.90
2022-08-14T03:00:59.858Z,10.07
2022-08-14T03:03:31.495Z,13.20
2022-08-14T03:06:00.545Z,10.90
2022-08-14T03:08:31.802Z,11.80
2022-08-14T03:11:01.367Z,14.45
2022-08-14T03:13:29.516Z,10.05
2022-08-14T03:15:58.165Z,11.45
2022-08-14T03:18:31.793Z,12.00
2022-08-14T03:21:02.799Z,12.95
2022-08-14T03:23:37.896Z,15.07
2022-08-14T03:26:29.857Z,16.15
2022-08-14T03:29:01.021Z,15.05
2022-08-14T03:31:30.155Z,10.65
2022-08-14T03:34:00.031Z,14.73
2022-08-14T03:37:51.035Z,13.38
2022-08-14T03:39:22.568Z,14.88
2022-08-14T03:41:54.858Z,10.20
2022-08-14T03:45:25.240Z,12.10
2022-08-14T03:47:11.858Z,13.70
2022-08-14T03:49:42.381Z,12.93
2022-08-14T03:52:37.869Z,11.55
2022-08-14T03:54:59.262Z,13.38
2022-08-14T03:57:31.699Z,13.07
2022-08-14T03:59:59.848Z,12.80
2022-08-14T04:02:33.122Z,13.77
2022-08-14T04:05:11.883Z,12.43
2022-08-14T04:07:49.792Z,13.18
2022-08-14T04:10:31.514Z,13.13
2022-08-14T04:13:06.094Z,15.32
2022-08-14T04:15:56.077Z,12.05
2022-08-14T04:18:22.040Z,12.73
2022-08-14T04:20:51.505Z,12.23
2022-08-14T04:23:32.881Z,12.68
2022-08-14T04:26:08.443Z,12.15
2022-08-14T04:29:07.075Z,15.07
2022-08-14T04:33:02.433Z,10.98
2022-08-14T04:34:20.735Z,11.43
2022-08-14T04:37:09.677Z,10.60
2022-08-14T04:39:57.627Z,13.55
2022-08-14T04:42:47.157Z,17.25
2022-08-14T04:45:23.876Z,28.50
2022-08-14T04:48:12.724Z,11.82
2022-08-14T04:50:49.119Z,10.32
2022-08-14T04:53:26.549Z,11.40
2022-08-14T04:56:03.457Z,8.45
2022-08-14T04:58:35.117Z,8.73
2022-08-14T05:01:12.523Z,10.23
2022-08-14T05:03:40.112Z,11.82
2022-08-14T05:06:38.110Z,9.23
2022-08-14T05:09:00.317Z,9.02
2022-08-14T05:11:28.097Z,11.27
2022-08-14T05:14:16.716Z,5.13
2022-08-14T05:16:46.586Z,12.95
2022-08-14T05:19:18.374Z,10.73
2022-08-14T05:22:01.047Z,15.32
2022-08-14T05:24:42.691Z,10.40
2022-08-14T05:27:10.963Z,10.65
2022-08-14T05:29:37.913Z,10.15
2022-08-14T05:32:07.907Z,11.05
2022-08-14T05:34:35.150Z,10.73
2022-08-14T05:37:03.552Z,15.73
2022-08-14T05:39:34.167Z,14.05
2022-08-14T05:42:01.446Z,9.45
2022-08-14T05:44:48.435Z,10.75
2022-08-14T05:47:16.498Z,16.98
2022-08-14T05:49:46.048Z,8.75
2022-08-14T05:52:15.850Z,11.15
2022-08-14T05:54:45.188Z,8.15
2022-08-14T05:57:12.234Z,11.05
2022-08-14T05:59:40.173Z,12.23
2022-08-14T06:02:11.399Z,6.25
2022-08-14T06:04:48.185Z,7.97
2022-08-14T06:07:17.037Z,6.55
2022-08-14T06:09:51.021Z,10.38
2022-08-14T06:12:31.469Z,11.35
2022-08-14T06:15:09.474Z,4.88
2022-08-14T06:17:47.725Z,12.32
2022-08-14T06:20:28.235Z,10.00
2022-08-14T06:22:56.342Z,4.53
2022-08-14T06:25:24.884Z,13.20
2022-08-14T06:27:52.390Z,12.13
2022-08-14T06:30:23.104Z,16.20
2022-08-14T06:32:52.820Z,7.65
2022-08-14T06:35:20.630Z,9.25
2022-08-14T06:37:49.301Z,11.45
2022-08-14T06:40:26.817Z,5.88
2022-08-14T06:43:15.430Z,8.10
2022-08-14T06:45:53.662Z,10.55
2022-08-14T06:48:25.678Z,9.45
2022-08-14T06:50:53.907Z,13.82
2022-08-14T06:53:21.851Z,8.88
2022-08-14T06:56:00.871Z,9.27
2022-08-14T06:58:32.144Z,8.82
2022-08-14T07:01:26.704Z,8.35
2022-08-14T07:04:23.871Z,15.02
2022-08-14T07:06:54.832Z,12.27
2022-08-14T07:09:27.927Z,14.23
2022-08-14T07:11:56.267Z,12.48
2022-08-14T07:14:24.106Z,8.07
2022-08-14T07:16:51.079Z,7.47
2022-08-14T07:19:21.016Z,10.55
2022-08-14T07:21:48.266Z,7.75
2022-08-14T07:24:21.906Z,11.70
2022-08-14T07:26:53.934Z,6.00
2022-08-14T07:29:26.076Z,11.18
2022-08-14T07:31:53.773Z,10.43
2022-08-14T07:34:36.197Z,16.15
2022-08-14T07:37:07.916Z,8.40
2022-08-14T07:39:37.541Z,10.23
2022-08-14T07:42:06.286Z,9.82
2022-08-14T07:44:45.873Z,10.10
2022-08-14T07:47:16.645Z,38.53
2022-08-14T07:50:02.554Z,12.90
2022-08-14T07:52:32.067Z,12.75
2022-08-14T07:55:00.861Z,7.18
2022-08-14T07:57:28.257Z,7.57
2022-08-14T07:59:55.415Z,8.68
2022-08-14T08:02:23.965Z,12.65
2022-08-14T08:04:55.179Z,9.40
2022-08-14T08:07:30.677Z,9.95
2022-08-14T08:10:01.216Z,11.35
2022-08-14T08:12:32.604Z,9.98
2022-08-14T08:15:06.988Z,5.97
2022-08-14T08:17:42.819Z,5.47
2022-08-14T08:20:27.524Z,15.60
2022-08-14T08:23:06.148Z,11.30
2022-08-14T08:25:40.416Z,9.52
2022-08-14T08:28:19.819Z,7.55
2022-08-14T08:31:00.116Z,8.68
2022-08-14T08:33:31.743Z,8.70
2022-08-14T08:36:01.490Z,4.68
2022-08-14T08:39:17.569Z,9.18
2022-08-14T08:41:15.862Z,7.53
2022-08-14T08:43:46.087Z,11.30
2022-08-14T08:46:21.382Z,6.65
2022-08-14T08:51:34.533Z,13.75
2022-08-14T08:54:04.668Z,9.70
2022-08-14T08:56:42.286Z,7.65
2022-08-14T08:59:27.124Z,13.27
2022-08-14T09:02:05.109Z,7.72
2022-08-14T09:04:53.607Z,8.93
2022-08-14T09:07:27.933Z,9.70
2022-08-14T09:09:59.918Z,8.30
2022-08-14T09:12:33.406Z,16.05
2022-08-14T09:15:02.389Z,5.20
2022-08-14T09:17:29.523Z,14.95
2022-08-14T09:19:57.723Z,7.25
2022-08-14T09:22:35.681Z,8.20
2022-08-14T09:25:06.963Z,11.00
2022-08-14T09:27:36.728Z,8.10
2022-08-14T09:30:31.675Z,9.55
2022-08-14T09:33:10.993Z,9.18
2022-08-14T09:35:58.617Z,5.10
2022-08-14T09:38:38.018Z,9.35
2022-08-14T09:42:21.434Z,7.35
2022-08-14T09:44:59.919Z,13.40
2022-08-14T09:47:43.903Z,14.27
2022-08-14T09:50:33.815Z,10.55
2022-08-14T09:53:04.774Z,12.25
2022-08-14T09:55:42.385Z,15.52
2022-08-14T09:58:19.291Z,8.70
2022-08-14T10:01:01.917Z,16.77
2022-08-14T10:03:36.016Z,11.35
2022-08-14T10:06:15.748Z,7.53
2022-08-14T10:08:51.580Z,12.95
2022-08-14T10:11:34.821Z,9.75
2022-08-14T10:14:35.284Z,7.97
2022-08-14T10:17:06.361Z,12.57
2022-08-14T10:19:36.396Z,14.85
2022-08-14T10:23:13.599Z,11.30
2022-08-14T10:24:59.775Z,11.68
2022-08-14T10:27:28.886Z,15.07
2022-08-14T10:30:01.471Z,10.73
2022-08-14T10:32:40.053Z,13.50
2022-08-14T10:35:17.096Z,10.73
2022-08-14T10:37:49.960Z,14.93
2022-08-14T10:40:38.711Z,8.90
2022-08-14T10:43:38.116Z,14.70
2022-08-14T10:47:37.152Z,11.48
2022-08-14T10:49:04.418Z,16.30
2022-08-14T10:51:35.308Z,13.98
2022-08-14T10:54:35.014Z,14.40
2022-08-14T10:56:57.542Z,15.70
2022-08-14T10:59:31.064Z,13.50
2022-08-14T11:02:03.269Z,27.10
2022-08-14T11:04:31.252Z,21.50
2022-08-14T11:06:58.705Z,15.00
2022-08-14T11:09:26.307Z,9.85
2022-08-14T11:12:34.535Z,14.60
2022-08-14T11:14:59.244Z,14.98
2022-08-14T11:17:36.135Z,8.73
2022-08-14T11:20:16.056Z,16.15
2022-08-14T11:22:56.181Z,12.43
2022-08-14T11:25:43.982Z,10.55
2022-08-14T11:28:18.863Z,16.95
2022-08-14T11:30:53.282Z,21.52
2022-08-14T11:33:31.106Z,24.55
2022-08-14T11:36:01.983Z,16.10
2022-08-14T11:38:40.775Z,18.50
2022-08-14T11:41:13.754Z,16.83
2022-08-14T11:43:57.808Z,15.80
2022-08-14T11:46:30.601Z,13.43
2022-08-14T11:49:06.409Z,18.65
2022-08-14T11:51:36.133Z,18.42
2022-08-14T11:54:19.679Z,28.98
2022-08-14T11:56:50.679Z,13.80
2022-08-14T11:59:26.579Z,19.40
2022-08-14T12:03:00.730Z,12.52
2022-08-14T12:05:04.239Z,15.85
2022-08-14T12:07:42.835Z,22.40
2022-08-14T12:10:27.389Z,14.75
2022-08-14T12:13:17.837Z,18.02
2022-08-14T12:15:49.027Z,15.32
2022-08-14T12:18:30.251Z,16.50
2022-08-14T12:20:59.497Z,17.17
2022-08-14T12:23:27.678Z,20.27
2022-08-14T12:26:38.847Z,12.73
2022-08-14T12:29:16.268Z,12.52
2022-08-14T12:31:47.405Z,17.27
2022-08-14T12:34:20.591Z,13.38
2022-08-14T12:36:50.175Z,16.55
2022-08-14T12:39:25.693Z,15.88
2022-08-14T12:42:06.286Z,14.57
2022-08-14T12:44:38.639Z,15.77
2022-08-14T12:47:17.069Z,18.10
2022-08-14T12:49:54.284Z,14.13
2022-08-14T12:52:58.761Z,19.67
2022-08-14T12:56:22.694Z,13.30
2022-08-14T12:58:35.072Z,19.63
2022-08-14T13:01:16.882Z,16.75
2022-08-14T13:03:51.797Z,14.88
2022-08-14T13:06:24.570Z,15.73
2022-08-14T13:08:53.877Z,19.05
2022-08-14T13:11:32.749Z,15.20
2022-08-14T13:14:01.319Z,16.52
2022-08-14T13:16:38.374Z,15.23
2022-08-14T13:19:11.669Z,15.50
2022-08-14T13:21:58.469Z,17.23
2022-08-14T13:24:28.042Z,15.30
2022-08-14T13:26:58.475Z,16.20
2022-08-14T13:29:29.759Z,14.85
2022-08-14T13:31:59.703Z,15.55
2022-08-14T13:34:29.252Z,17.20
2022-08-14T13:37:03.719Z,13.32
2022-08-14T13:39:36.205Z,18.58
2022-08-14T13:42:13.716Z,17.73
2022-08-14T13:44:42.718Z,15.43
2022-08-14T13:47:15.306Z,16.10
2022-08-14T13:49:56.948Z,19.20
2022-08-14T13:52:51.499Z,15.00
2022-08-14T13:55:16.175Z,16.67
2022-08-14T13:57:49.479Z,17.95
2022-08-14T14:00:51.748Z,20.77
2022-08-14T14:03:22.514Z,14.55
2022-08-14T14:05:53.191Z,15.18
2022-08-14T14:08:46.283Z,11.32
2022-08-14T14:11:15.665Z,23.73
2022-08-14T14:13:46.788Z,14.63
2022-08-14T14:16:25.223Z,14.15
2022-08-14T14:19:08.973Z,15.55
2022-08-14T14:21:40.505Z,18.10
2022-08-14T14:24:08.539Z,14.10
2022-08-14T14:26:47.841Z,16.10
2022-08-14T14:29:25.837Z,17.10
2022-08-14T14:31:54.211Z,74.85
2022-08-14T14:34:30.300Z,14.77
2022-08-14T14:37:04.469Z,19.58
2022-08-14T14:39:38.146Z,14.27
2022-08-14T14:42:29.396Z,15.52
2022-08-14T14:45:14.411Z,18.48
2022-08-14T14:47:45.306Z,16.50
2022-08-14T14:50:13.669Z,15.68
2022-08-14T14:52:44.428Z,17.27
2022-08-14T14:55:13.362Z,14.75
2022-08-14T14:57:45.663Z,13.52
2022-08-14T15:00:20.313Z,16.38
2022-08-14T15:02:51.553Z,16.20
2022-08-14T15:05:20.548Z,18.77
2022-08-14T15:07:49.690Z,13.85
2022-08-14T15:10:26.998Z,15.35
2022-08-14T15:13:03.669Z,16.02
2022-08-14T15:15:37.160Z,15.80
2022-08-14T15:18:09.899Z,15.63
2022-08-14T15:20:54.334Z,14.90
2022-08-14T15:23:24.610Z,16.00
2022-08-14T15:25:53.371Z,15.45
2022-08-14T15:28:21.781Z,16.08
2022-08-14T15:30:58.813Z,22.55
2022-08-14T15:34:13.346Z,19.33
2022-08-14T15:36:35.236Z,16.05
2022-08-14T15:39:02.789Z,35.78
2022-08-14T15:41:41.209Z,27.75
2022-08-14T15:44:18.817Z,20.33
2022-08-14T15:46:53.037Z,17.13
2022-08-14T15:49:20.779Z,18.25
2022-08-14T15:51:48.379Z,14.27
2022-08-14T15:54:17.990Z,14.50
2022-08-14T15:57:08.618Z,20.67
2022-08-14T15:59:55.828Z,14.70
2022-08-14T16:02:27.509Z,18.77
2022-08-14T16:04:55.576Z,18.58
2022-08-14T16:07:25.156Z,34.13
2022-08-14T16:10:25.215Z,13.60
2022-08-14T16:12:47.441Z,10.27
2022-08-14T16:15:16.855Z,11.82
2022-08-14T16:17:45.032Z,11.05
2022-08-14T16:20:12.897Z,11.60
2022-08-14T16:23:06.490Z,14.07
2022-08-14T16:25:43.064Z,16.08
2022-08-14T16:28:27.064Z,14.40
2022-08-14T16:30:55.171Z,15.48
2022-08-14T16:33:28.032Z,18.80
2022-08-14T16:36:26.533Z,20.35
2022-08-14T16:39:04.693Z,24.65
2022-08-14T16:41:32.361Z,19.73
2022-08-14T16:44:05.551Z,17.10
2022-08-14T16:46:45.709Z,18.05
2022-08-14T16:49:17.409Z,19.48
2022-08-14T16:51:46.467Z,24.73
2022-08-14T16:54:34.132Z,22.75
2022-08-14T16:57:17.533Z,21.75
2022-08-14T16:59:57.827Z,21.80
2022-08-14T17:02:39.158Z,22.15
2022-08-14T17:05:24.715Z,25.75
2022-08-14T17:08:03.778Z,27.90
2022-08-14T17:10:50.871Z,29.13
2022-08-14T17:13:19.944Z,29.17
2022-08-14T17:16:25.219Z,30.95
2022-08-14T17:19:00.549Z,27.73
2022-08-14T17:21:40.949Z,23.95
2022-08-14T17:24:58.121Z,24.15
2022-08-14T17:27:03.921Z,27.60
2022-08-14T17:29:44.701Z,26.00
2022-08-14T17:32:29.485Z,26.52
2022-08-14T17:35:11.213Z,23.83
2022-08-14T17:37:45.188Z,27.48
2022-08-14T17:40:19.041Z,24.42
2022-08-14T17:42:50.970Z,28.70
2022-08-14T17:45:43.148Z,26.35
2022-08-14T17:49:15.517Z,26.02
2022-08-14T17:51:30.138Z,21.25
2022-08-14T17:54:02.483Z,25.55
2022-08-14T17:56:36.201Z,25.67
2022-08-14T17:59:06.961Z,24.90
2022-08-14T18:01:40.963Z,24.65
2022-08-14T18:04:27.682Z,25.83
2022-08-14T18:07:08.823Z,23.15
2022-08-14T18:09:56.134Z,23.10
2022-08-14T18:12:32.908Z,24.00
2022-08-14T18:15:16.079Z,25.33
2022-08-14T18:17:52.676Z,30.23
2022-08-14T18:21:40.783Z,30.25
2022-08-14T18:23:13.084Z,25.45
2022-08-14T18:25:50.419Z,29.50
2022-08-14T18:28:51.225Z,27.90
2022-08-14T18:31:43.510Z,24.75
2022-08-14T18:34:30.751Z,26.17
2022-08-14T18:37:14.315Z,26.90
2022-08-14T18:40:01.163Z,26.45
2022-08-14T18:42:30.372Z,27.88
2022-08-14T18:45:00.970Z,30.70
2022-08-14T18:47:56.644Z,32.70
2022-08-14T18:50:27.720Z,31.42
2022-08-14T18:53:10.940Z,26.88
2022-08-14T18:55:53.473Z,32.35
2022-08-14T18:58:30.892Z,24.73
2022-08-14T19:01:04.377Z,25.05
2022-08-14T19:03:37.134Z,22.70
2022-08-14T19:06:08.892Z,26.30
2022-08-14T19:08:47.891Z,26.92
2022-08-14T19:11:38.203Z,23.23
2022-08-14T19:14:06.669Z,24.08
2022-08-14T19:16:36.775Z,22.55
2022-08-14T19:19:06.941Z,25.70
2022-08-14T19:21:43.472Z,25.75
2022-08-14T19:24:29.297Z,22.95
2022-08-14T19:27:23.722Z,24.17
2022-08-14T19:30:19.807Z,25.83
2022-08-14T19:32:53.064Z,25.17
2022-08-14T19:35:24.911Z,27.98
2022-08-14T19:38:32.700Z,24.10
2022-08-14T19:41:01.596Z,21.35
2022-08-14T19:43:55.910Z,23.00
2022-08-14T19:46:39.032Z,23.50
2022-08-14T19:49:15.743Z,24.02
2022-08-14T19:51:50.621Z,25.13
2022-08-14T19:54:18.190Z,21.58
2022-08-14T19:56:46.220Z,21.85
2022-08-14T19:59:19.573Z,24.05
2022-08-14T20:01:52.244Z,20.33
2022-08-14T20:04:45.764Z,21.13
2022-08-14T20:07:27.541Z,20.60
2022-08-14T20:11:02.962Z,21.00
2022-08-14T20:13:32.570Z,22.45
2022-08-14T20:16:12.029Z,19.85
2022-08-14T20:18:50.744Z,22.15
2022-08-14T20:21:20.011Z,22.48
2022-08-14T20:23:49.446Z,19.08
2022-08-14T20:26:31.246Z,25.48
2022-08-14T20:29:04.938Z,20.67
2022-08-14T20:31:37.254Z,21.58
2022-08-14T20:34:19.203Z,25.05
2022-08-14T20:37:26.247Z,19.60
2022-08-14T20:39:55.733Z,20.08
2022-08-14T20:42:43.605Z,25.30
2022-08-14T20:45:24.864Z,22.80
2022-08-14T20:48:08.985Z,24.95
2022-08-14T20:50:45.126Z,22.55
2022-08-14T20:53:31.991Z,21.10
2022-08-14T20:56:29.763Z,25.27
2022-08-14T20:58:57.830Z,24.70
2022-08-14T21:01:33.167Z,23.63
2022-08-14T21:04:02.723Z,17.70
2022-08-14T21:07:24.006Z,21.90
2022-08-14T21:10:03.461Z,21.63
2022-08-14T21:12:34.927Z,22.55
2022-08-14T21:15:10.277Z,26.30
2022-08-14T21:17:41.433Z,25.33
2022-08-14T21:20:26.507Z,19.90
2022-08-14T21:23:00.546Z,23.05
2022-08-14T21:25:31.384Z,28.20
2022-08-14T21:28:03.274Z,20.83
2022-08-14T21:30:47.003Z,24.05
2022-08-14T21:33:21.660Z,20.05
2022-08-14T21:35:55.495Z,21.52
2022-08-14T21:38:33.779Z,20.52
2022-08-14T21:41:41.594Z,22.50
2022-08-14T21:44:17.697Z,25.38
2022-08-14T21:46:54.641Z,21.63
2022-08-14T21:49:33.814Z,22.40
2022-08-14T21:52:51.079Z,24.67
2022-08-14T21:54:58.071Z,23.77
2022-08-14T21:57:55.648Z,29.38
2022-08-14T22:00:31.592Z,24.80
2022-08-14T22:03:10.026Z,20.30
2022-08-14T22:05:39.175Z,24.42
2022-08-14T22:08:07.422Z,25.67
2022-08-14T22:10:46.584Z,23.75
2022-08-14T22:13:17.617Z,23.33
2022-08-14T22:15:49.354Z,26.38
2022-08-14T22:18:20.389Z,24.83
2022-08-14T22:20:54.015Z,21.15
2022-08-14T22:23:25.781Z,22.65
2022-08-14T22:25:55.182Z,24.02
2022-08-14T22:28:32.442Z,18.90
2022-08-14T22:31:10.325Z,18.90
2022-08-14T22:33:39.337Z,18.42
2022-08-14T22:36:26.463Z,20.88
2022-08-14T22:38:54.555Z,25.13
2022-08-14T22:41:29.189Z,24.17
2022-08-14T22:44:03.238Z,25.90
2022-08-14T22:46:30.604Z,26.48
2022-08-14T22:48:58.219Z,21.30
2022-08-14T22:51:27.455Z,27.10
2022-08-14T22:53:56.826Z,21.98
2022-08-14T22:56:30.309Z,25.63
2022-08-14T22:59:01.033Z,24.38
2022-08-14T23:01:55.803Z,22.85
2022-08-14T23:04:34.829Z,21.23
2022-08-14T23:07:14.480Z,26.48
2022-08-14T23:09:55.987Z,20.73
2022-08-14T23:12:29.876Z,26.40
2022-08-14T23:15:00.806Z,21.25
2022-08-14T23:17:38.993Z,27.58
2022-08-14T23:20:19.139Z,22.38
2022-08-14T23:22:51.545Z,22.13
2022-08-14T23:25:57.591Z,23.58
2022-08-14T23:28:32.735Z,23.05
2022-08-14T23:30:56.214Z,28.08
2022-08-14T23:33:23.811Z,26.13
2022-08-14T23:35:58.863Z,25.02
2022-08-14T23:38:30.353Z,22.40
2022-08-14T23:41:00.840Z,22.35
2022-08-14T23:43:31.167Z,28.67
2022-08-14T23:45:59.146Z,20.80
2022-08-14T23:48:28.390Z,24.60
2022-08-14T23:50:55.848Z,24.13
2022-08-14T23:53:28.146Z,27.13
2022-08-14T23:56:31.943Z,22.33
2022-08-14T23:59:01.685Z,22.83
